Latest Weather Observations for Mackay Airport

IDQ60801

Issued at 5:32 am EST Wednesday 1 July 2015 (issued every 30 minutes, with the page automatically refreshed every 10 minutes)

About weather observations | Map of weather stations | Latest weather observations for QLD | Other Formats
Station Details ID: 033045 Name: MACKAY AERO Lat: -21.17 Lon: 149.18 Height: 4.7 m
Data from the previous 72 hours. | See also: Recent months at Mackay Airport
Date/Time
EST
Temp
°C
App
Temp
°C
Dew
Point
Rel
Hum
%
Delta-T
°C
Wind Press
QNH
hPa
Press
MSL
hPa
Rain
since 9 am
mm
Dir
 
Spd
km/h
Gust
km/h
Spd
kts
Gust
kts
01/05:30am 18.8 18.6 16.6 87 1.3 SSE 13 17 7 9 1021.6 1021.6 6.0
01/05:00am 18.8 17.6 16.2 85 1.5 S 17 20 9 11 1021.4 1021.4 6.0
01/04:30am 18.5 18.1 16.1 86 1.4 S 13 17 7 9 1021.5 1021.5 6.0
01/04:16am 19.0 17.8 16.2 84 1.7 SSE 17 20 9 11 1021.4 1021.4 6.0
01/04:00am 19.2 18.3 16.8 86 1.4 SSE 17 20 9 11 1021.5 1021.5 6.0
01/03:53am 19.1 18.1 16.7 86 1.4 SSE 17 22 9 12 1021.6 1021.6 6.0
01/03:30am 19.2 17.7 16.4 84 1.7 SSE 19 22 10 12 1021.5 1021.5 6.0
01/03:00am 19.3 19.2 16.9 86 1.4 S 13 19 7 10 1021.5 1021.5 6.0
01/02:30am 19.1 18.6 16.9 87 1.3 SSE 15 20 8 11 1021.3 1021.3 6.0
01/02:00am 18.2 18.7 16.5 90 1.0 S 9 13 5 7 1021.4 1021.4 6.0
01/01:30am 18.6 18.8 16.8 89 1.1 S 11 15 6 8 1021.5 1021.5 6.0
01/01:00am 19.2 19.2 17.2 88 1.2 S 13 15 7 8 1021.8 1021.8 6.0
01/12:30am 19.5 20.1 17.6 89 1.2 S 11 17 6 9 1022.1 1022.1 6.0
 
Date/Time
EST
Temp
°C
App
Temp
°C
Dew
Point
Rel
Hum
%
Delta-T
°C
Wind Press
QNH
hPa
Press
MSL
hPa
Rain
since 9 am
mm
Dir
 
Spd
km/h
Gust
km/h
Spd
kts
Gust
kts
30/11:30pm 20.0 19.9 17.8 87 1.4 SSE 15 22 8 12 1022.5 1022.5 6.0
30/11:00pm 19.2 20.3 17.9 92 0.8 S 9 11 5 6 1022.8 1022.8 6.0
30/10:30pm 19.2 20.3 17.9 92 0.8 S 9 13 5 7 1023.0 1023.0 6.0
30/10:00pm 19.8 20.3 18.3 91 0.9 S 13 17 7 9 1022.8 1022.8 6.0
30/09:30pm 19.8 20.0 18.6 93 0.7 SSE 15 20 8 11 1022.8 1022.8 6.0
30/09:00pm 18.6 19.4 17.4 93 0.7 S 9 13 5 7 1023.0 1023.0 6.0
30/08:30pm 19.4 20.5 18.1 92 0.8 S 9 11 5 6 1022.7 1022.7 6.0
30/08:00pm 19.7 20.0 18.0 90 1.0 SSE 13 17 7 9 1022.6 1022.6 6.0
30/07:30pm 19.7 20.3 17.8 89 1.2 SSE 11 15 6 8 1022.4 1022.4 6.0
30/07:00pm 20.0 20.3 18.0 88 1.2 SSE 13 17 7 9 1022.1 1022.1 6.0
30/06:30pm 20.0 20.2 17.6 86 1.5 SSE 13 17 7 9 1021.9 1021.9 6.0
30/06:00pm 20.5 20.3 17.7 84 1.7 SSE 15 19 8 10 1021.7 1021.7 6.0
30/05:30pm 20.9 19.8 17.7 82 2.0 SE 20 28 11 15 1021.6 1021.6 6.0
30/05:00pm 21.6 19.8 17.8 79 2.3 SE 24 33 13 18 1021.3 1021.3 6.0
30/04:30pm 22.2 19.1 17.6 75 2.8 SE 30 37 16 20 1021.0 1021.0 6.0
30/04:00pm 22.5 19.4 17.6 74 3.0 SE 30 35 16 19 1020.9 1020.9 6.0
30/03:30pm 22.7 19.5 17.2 71 3.4 SE 30 35 16 19 1020.9 1020.9 6.0
30/03:00pm 22.8 19.6 18.1 75 2.9 SE 32 35 17 19 1020.9 1020.9 6.0
30/02:30pm 23.6 21.6 19.1 76 2.9 SE 28 35 15 19 1020.9 1020.9 6.0
30/02:00pm 22.8 20.0 18.1 75 2.9 SE 30 39 16 21 1020.9 1020.9 6.0
30/01:30pm 23.3 20.9 19.2 78 2.6 SE 30 37 16 20 1021.2 1021.2 6.0
30/01:00pm 22.7 20.7 19.1 80 2.3 SE 28 35 15 19 1021.6 1021.6 6.0
30/12:30pm 22.0 19.1 18.8 82 2.0 SE 32 35 17 19 1022.0 1022.0 6.0
30/12:00pm 22.1 20.6 19.5 85 1.7 SE 26 33 14 18 1022.4 1022.4 6.0
30/11:41am 22.2 21.5 20.3 89 1.2 SE 24 32 13 17 1022.7 1022.7 6.0
30/11:30am 21.5 20.7 20.1 92 0.9 SE 24 33 13 18 1022.9 1022.9 6.0
30/11:00am 20.1 19.2 19.1 94 0.6 SE 22 32 12 17 1023.4 1023.4 4.6
30/10:55am 20.2 18.6 19.2 94 0.6 SE 26 35 14 19 1023.4 1023.4 4.6
30/10:48am 20.2 18.0 18.7 91 0.9 SE 28 35 15 19 1023.3 1023.3 4.4
30/10:36am 21.4 20.8 20.4 94 0.6 SE 24 30 13 16 1023.3 1023.3 4.4
30/10:30am 21.0 20.6 20.2 95 0.5 SE 22 30 12 16 1023.4 1023.4 4.4
30/10:28am 21.0 20.7 20.3 96 0.4 SE 22 30 12 16 1023.4 1023.4 4.4
30/10:00am 19.4 17.2 18.6 95 0.5 E 28 37 15 20 1023.6 1023.6 3.6
30/09:57am 19.3 17.3 18.3 94 0.6 E 26 37 14 20 1023.6 1023.6 2.8
30/09:48am 19.5 18.6 18.3 93 0.7 ESE 20 30 11 16 1023.6 1023.6 1.2
30/09:41am 20.1 19.7 18.8 92 0.8 SE 19 24 10 13 1023.4 1023.4 0.2
30/09:30am 20.4 20.5 19.2 93 0.8 SSE 17 24 9 13 1023.4 1023.4 0.0
30/09:11am 20.2 19.4 19.2 94 0.6 SE 22 28 12 15 1023.4 1023.4 0.0
30/09:00am 19.8 19.3 19.0 95 0.5 SE 20 28 11 15 1023.5 1023.5 1.0
30/08:47am 19.9 18.8 18.7 93 0.7 SE 22 32 12 17 1023.6 1023.6 0.8
30/08:39am 20.1 19.3 18.4 90 1.1 SSE 20 30 11 16 1023.3 1023.3 0.6
30/08:30am 20.3 19.4 18.2 88 1.3 SSE 20 28 11 15 1023.0 1023.0 0.0
30/08:00am 20.0 19.1 18.1 89 1.2 SSE 20 26 11 14 1022.7 1022.7 0.0
30/07:30am 20.3 18.4 18.6 90 1.1 SE 26 33 14 18 1022.5 1022.5 0.0
30/07:00am 20.5 18.5 18.4 88 1.3 SE 26 35 14 19 1022.1 1022.1 0.0
30/06:30am 20.3 18.4 18.6 90 1.1 SE 26 33 14 18 1021.8 1021.8 0.0
30/06:00am 20.2 17.8 18.3 89 1.2 SE 28 37 15 20 1021.6 1021.6 0.0
30/05:45am 20.1 18.1 18.4 90 1.1 SE 26 37 14 20 1021.4 1021.4 0.0
30/05:35am 20.0 17.3 18.5 91 0.9 SE 30 37 16 20 1021.4 1021.4 0.0
30/05:30am 20.4 18.6 18.7 90 1.1 SE 26 37 14 20 1021.3 1021.3 0.0
30/05:00am 20.3 18.8 18.6 90 1.1 SE 24 35 13 19 1021.1 1021.1 0.0
30/04:30am 20.5 18.6 18.6 89 1.2 SE 26 32 14 17 1021.0 1021.0 0.0
30/04:00am 20.3 18.7 18.4 89 1.2 SE 24 35 13 19 1020.9 1020.9 0.0
30/03:30am 20.2 19.7 18.7 91 0.9 SSE 19 24 10 13 1021.0 1021.0 0.0
30/03:00am 20.1 19.7 18.8 92 0.8 SE 19 26 10 14 1021.1 1021.1 0.0
30/02:57am 20.2 19.8 18.9 92 0.8 SE 19 24 10 13 1021.1 1021.1 0.0
30/02:47am 20.3 20.3 19.0 92 0.8 SE 17 24 9 13 1021.3 1021.3 0.0
30/02:30am 20.5 18.7 18.8 90 1.1 SE 26 33 14 18 1021.4 1021.4 0.0
30/02:00am 20.6 18.7 19.3 92 0.8 ESE 28 35 15 19 1021.4 1021.4 0.0
30/01:30am 20.7 18.8 18.6 88 1.3 ESE 26 32 14 17 1021.9 1021.9 0.0
30/01:00am 21.1 19.4 19.0 88 1.3 SE 26 33 14 18 1022.3 1022.3 0.0
30/12:30am 21.4 19.2 18.8 85 1.6 SE 28 37 15 20 1022.4 1022.4 0.0
30/12:00am 21.5 19.6 18.5 83 1.9 SE 26 35 14 19 1022.4 1022.4 0.0
 
Date/Time
EST
Temp
°C
App
Temp
°C
Dew
Point
Rel
Hum
%
Delta-T
°C
Wind Press
QNH
hPa
Press
MSL
hPa
Rain
since 9 am
mm
Dir
 
Spd
km/h
Gust
km/h
Spd
kts
Gust
kts
29/11:30pm 21.5 20.1 18.9 85 1.6 SE 24 30 13 16 1022.5 1022.5 0.0
29/11:00pm 21.7 19.3 18.3 81 2.1 SE 28 37 15 20 1022.6 1022.6 0.0
29/10:30pm 21.5 19.7 17.9 80 2.2 SE 24 32 13 17 1022.9 1022.9 0.0
29/10:00pm 21.6 19.9 18.0 80 2.2 SE 24 32 13 17 1023.0 1023.0 0.0
29/09:30pm 21.6 19.4 17.8 79 2.4 SE 26 35 14 19 1022.9 1022.9 0.0
29/09:00pm 21.7 19.5 17.9 79 2.3 SE 26 33 14 18 1022.8 1022.8 0.0
29/08:30pm 21.7 20.1 18.3 81 2.1 ESE 24 32 13 17 1022.8 1022.8 0.0
29/08:00pm 21.7 20.1 18.3 81 2.1 ESE 24 32 13 17 1022.7 1022.7 0.0
29/07:30pm 21.7 19.7 18.3 81 2.1 ESE 26 32 14 17 1022.4 1022.4 0.0
29/07:00pm 21.4 20.8 18.8 85 1.6 SE 20 28 11 15 1022.5 1022.5 0.0
29/06:30pm 21.4 20.4 18.8 85 1.6 SE 22 30 12 16 1022.3 1022.3 0.0
29/06:00pm 21.5 21.2 18.3 82 2.0 SE 17 24 9 13 1022.2 1022.2 0.0
29/05:30pm 21.8 21.0 18.4 81 2.1 SE 20 24 11 13 1022.1 1022.1 0.0
29/05:00pm 22.0 20.3 18.0 78 2.5 SE 24 32 13 17 1021.9 1021.9 0.0
29/04:47pm 22.2 19.8 18.2 78 2.5 SE 28 33 15 18 1021.8 1021.8 0.0
29/04:30pm 22.4 20.4 18.2 77 2.6 SE 26 32 14 17 1021.7 1021.7 0.0
29/04:27pm 22.6 20.7 18.6 78 2.5 SE 26 35 14 19 1021.7 1021.7 0.0
29/04:00pm 22.6 20.4 18.8 79 2.4 SE 28 35 15 19 1021.5 1021.5 0.0
29/03:30pm 23.2 20.9 18.5 75 3.0 SE 28 33 15 18 1021.5 1021.5 0.0
29/03:00pm 23.4 20.7 18.5 74 3.1 SE 30 37 16 20 1021.3 1021.3 0.0
29/02:30pm 23.4 20.3 18.5 74 3.1 SE 32 39 17 21 1021.5 1021.5 0.0
29/02:00pm 23.7 21.0 19.2 76 2.9 SE 32 39 17 21 1021.7 1021.7 0.0
29/01:30pm 23.5 20.7 19.0 76 2.9 SE 32 39 17 21 1021.9 1021.9 0.0
29/01:00pm 23.4 20.4 18.7 75 3.0 SE 32 41 17 22 1022.4 1022.4 0.0
29/12:30pm 23.2 20.6 19.6 80 2.3 SE 32 41 17 22 1022.9 1022.9 0.0
29/12:00pm 23.5 20.8 19.2 77 2.7 SE 32 39 17 21 1023.4 1023.4 0.0
29/11:30am 22.9 21.2 19.7 82 2.1 SE 28 35 15 19 1023.7 1023.7 0.0
29/11:00am 22.0 19.1 18.8 82 2.0 SE 32 41 17 22 1024.0 1024.0 0.0
29/10:30am 21.6 18.6 18.6 83 1.9 SE 32 43 17 23 1024.3 1024.3 0.0
29/10:00am 21.5 18.7 18.3 82 2.0 SE 30 37 16 20 1024.5 1024.5 0.0
29/09:30am 21.2 18.7 18.0 82 2.0 SSE 28 39 15 21 1024.5 1024.5 0.0
29/09:00am 20.6 18.9 18.0 85 1.6 SSE 24 32 13 17 1024.6 1024.6 6.6
29/08:30am 19.7 18.7 18.0 90 1.0 SSE 20 28 11 15 1024.5 1024.5 6.6
29/08:00am 19.0 17.8 17.5 91 0.9 SSE 20 26 11 14 1024.4 1024.4 6.6
29/07:30am 18.8 18.6 17.6 93 0.7 S 15 24 8 13 1024.0 1024.0 6.6
29/07:00am 18.5 17.5 17.5 94 0.6 SSE 19 26 10 14 1023.6 1023.6 6.6
29/06:30am 18.4 18.1 17.4 94 0.6 SSE 15 24 8 13 1023.2 1023.2 6.6
29/06:00am 18.6 17.7 17.8 95 0.5 S 19 24 10 13 1022.8 1022.8 6.6
29/05:30am 19.1 17.0 18.1 94 0.6 SSE 26 32 14 17 1022.4 1022.4 6.6
29/05:27am 19.1 16.5 17.9 93 0.7 SSE 28 44 15 24 1022.3 1022.3 6.6
29/05:17am 18.8 15.3 18.0 95 0.5 SE 33 44 18 24 1022.3 1022.3 6.6
29/05:00am 18.7 15.4 18.0 96 0.4 ESE 32 43 17 23 1022.5 1022.5 6.2
29/04:49am 18.5 17.4 17.8 96 0.4 SE 20 48 11 26 1022.5 1022.5 5.8
29/04:30am 18.4 17.9 17.8 96 0.4 SE 17 24 9 13 1022.5 1022.5 4.2
29/04:13am 18.5 17.9 17.5 94 0.6 SE 17 22 9 12 1022.5 1022.5 2.2
29/04:07am 18.5 17.5 17.5 94 0.6 SSE 19 24 10 13 1022.3 1022.3 1.8
29/04:00am 18.5 17.5 17.5 94 0.6 SSE 19 24 10 13 1022.1 1022.1 1.4
29/03:44am 18.5 17.5 17.5 94 0.6 SSE 19 24 10 13 1022.3 1022.3 1.4
29/03:38am 18.5 18.0 17.7 95 0.5 SSE 17 22 9 12 1022.4 1022.4 1.4
29/03:30am 18.6 18.0 17.6 94 0.6 SSE 17 24 9 13 1022.5 1022.5 1.4
29/03:13am 18.7 18.1 17.5 93 0.7 SSE 17 22 9 12 1022.4 1022.4 1.2
29/03:07am 18.6 17.9 17.3 92 0.8 SSE 17 22 9 12 1022.4 1022.4 1.0
29/03:00am 18.6 17.9 17.4 93 0.7 SE 17 20 9 11 1022.5 1022.5 1.0
29/02:53am 18.7 18.1 17.5 93 0.7 ESE 17 22 9 12 1022.7 1022.7 1.0
29/02:37am 19.3 17.6 17.1 87 1.3 SSE 22 30 12 16 1022.5 1022.5 0.4
29/02:30am 19.5 18.1 16.9 85 1.6 SSE 20 30 11 16 1022.4 1022.4 0.2
29/02:00am 19.5 18.1 17.1 86 1.5 SSE 20 28 11 15 1022.6 1022.6 0.2
29/01:30am 19.9 18.6 17.3 85 1.6 SSE 20 26 11 14 1022.6 1022.6 0.2
29/01:00am 20.2 19.0 17.4 84 1.7 SSE 20 30 11 16 1022.9 1022.9 0.2
29/12:30am 20.4 19.4 18.0 86 1.5 SSE 20 33 11 18 1023.2 1023.2 0.2
29/12:00am 20.4 19.1 18.2 87 1.4 SSE 22 33 12 18 1023.5 1023.5 0.2
 
Date/Time
EST
Temp
°C
App
Temp
°C
Dew
Point
Rel
Hum
%
Delta-T
°C
Wind Press
QNH
hPa
Press
MSL
hPa
Rain
since 9 am
mm
Dir
 
Spd
km/h
Gust
km/h
Spd
kts
Gust
kts
28/11:30pm 20.4 18.7 18.2 87 1.4 SSE 24 32 13 17 1023.7 1023.7 0.2
28/11:00pm 20.6 17.7 18.0 85 1.6 SE 30 41 16 22 1023.9 1023.9 0.2
28/10:39pm 20.7 18.3 18.3 86 1.5 SSE 28 35 15 19 1024.0 1024.0 0.2
28/10:30pm 20.7 18.7 18.3 86 1.5 SSE 26 39 14 21 1024.1 1024.1 0.2
28/10:26pm 20.8 18.5 18.4 86 1.5 SE 28 39 15 21 1024.0 1024.0 0.2
28/10:00pm 20.9 18.5 18.3 85 1.6 SE 28 39 15 21 1024.1 1024.1 0.2
28/09:30pm 20.9 18.4 18.1 84 1.7 SSE 28 37 15 20 1024.1 1024.1 0.2
28/09:00pm 21.1 18.0 18.3 84 1.7 SE 32 39 17 21 1024.0 1024.0 0.2
28/08:30pm 21.0 18.3 18.4 85 1.6 SE 30 41 16 22 1024.0 1024.0 0.2
28/08:00pm 21.2 19.0 18.6 85 1.6 SE 28 37 15 20 1024.0 1024.0 0.2
28/07:30pm 21.4 18.4 18.6 84 1.8 SE 32 43 17 23 1023.9 1023.9 0.2
28/07:00pm 21.4 19.7 19.0 86 1.5 SSE 26 37 14 20 1023.7 1023.7 0.2
28/06:30pm 21.5 18.9 18.7 84 1.8 SE 30 41 16 22 1023.5 1023.5 0.2
28/06:00pm 21.5 19.3 18.7 84 1.8 SE 28 37 15 20 1023.2 1023.2 0.2
28/05:30pm 21.6 19.4 18.8 84 1.8 SE 28 35 15 19 1022.8 1022.8 0.2
28/05:00pm 21.8 19.3 18.8 83 1.9 SE 30 37 16 20 1022.6 1022.6 0.2
28/04:30pm 21.9 18.9 18.7 82 2.0 SE 32 41 17 22 1022.1 1022.1 0.2
28/04:00pm 21.9 18.7 18.7 82 2.0 SE 33 43 18 23 1022.1 1022.1 0.2
28/03:30pm 21.7 17.6 18.3 81 2.1 SE 37 46 20 25 1022.4 1022.4 0.2
28/03:00pm 22.0 19.4 18.6 81 2.1 SE 30 43 16 23 1022.5 1022.5 0.2
28/02:30pm 21.3 18.3 18.7 85 1.6 SE 32 44 17 24 1022.4 1022.4 0.2
28/02:00pm 22.2 18.1 18.2 78 2.5 SE 37 46 20 25 1022.3 1022.3 0.2
28/01:30pm 22.2 18.2 18.4 79 2.4 SE 37 48 20 26 1022.3 1022.3 0.2
28/01:00pm 21.8 18.5 18.4 81 2.1 SE 33 46 18 25 1022.7 1022.7 0.2
28/12:46pm 21.5 18.7 18.3 82 2.0 SSE 30 48 16 26 1022.8 1022.8 0.2
28/12:30pm 21.2 18.6 18.6 85 1.6 SSE 30 41 16 22 1023.0 1023.0 0.2
28/12:23pm 21.1 18.1 18.7 86 1.5 SSE 32 43 17 23 1023.1 1023.1 0.2
28/12:00pm 21.2 17.5 18.4 84 1.7 SE 35 46 19 25 1023.4 1023.4 0.0
28/11:30am 23.1 19.7 17.8 72 3.3 SE 32 43 17 23 1023.4 1023.4 0.0
28/11:00am 22.3 18.2 17.4 74 3.0 SE 35 48 19 26 1023.8 1023.8 0.0
28/10:30am 22.7 18.5 18.0 75 2.9 SE 37 48 20 26 1023.7 1023.7 0.0
28/10:00am 22.3 18.8 17.4 74 3.0 SSE 32 43 17 23 1023.9 1023.9 0.0
28/09:30am 21.0 18.1 17.0 78 2.4 SSE 28 37 15 20 1024.1 1024.1 0.0
28/09:00am 21.2 17.6 17.2 78 2.4 SSE 32 43 17 23 1024.0 1024.0 0.0
28/08:30am 20.5 17.0 16.5 78 2.4 SSE 30 41 16 22 1023.8 1023.8 0.0
28/08:00am 19.8 16.6 16.4 81 2.0 SSE 28 41 15 22 1023.6 1023.6 0.0
28/07:30am 19.0 15.8 16.2 84 1.7 SSE 28 37 15 20 1023.4 1023.4 0.0
28/07:00am 18.5 16.9 16.1 86 1.4 SSE 19 26 10 14 1023.4 1023.4 0.0
28/06:30am 18.4 16.2 16.0 86 1.4 SSE 22 28 12 15 1023.2 1023.2 0.0
28/06:00am 18.2 16.2 15.6 85 1.5 SSE 20 26 11 14 1023.1 1023.1 0.0

Other Formats:

Comma delimited format used in spreadsheet applications
http://www.bom.gov.au/fwo/IDQ60801/IDQ60801.95367.axf

JavaScript Object Notation format (JSON) in row-major order
http://www.bom.gov.au/fwo/IDQ60801/IDQ60801.95367.json